KGWW Airport (Wayne Executive Jetport) Information

FAA: GWW - ICAO: KGWW

KGWW Airport Location

State North Carolina
County Wayne
City Goldsboro
KGWW Airport is 3 miles north of Goldsboro, NC.
Latitude 35-27-38.0000N
Longitude 077-57-53.7000W
Elevation 133ft

KGWW Airport METARs

METAR KGWW 302215Z AUTO 06011G16KT 040V140 1 1/4SM BKN006 OVC015 18/18 A2957 RMK AO2 P0001 T01830183
Altimeter 29.57"
Temperature 18.3°C (64.9°F)
Wind 60° at 11KT with gusts to 16KT
Clouds broken at 600ft overcast at 1,500ft
Visibility 1.25mi
Time observed: 2022-09-30T22:15:00Z

KGWW Airport Details

Status Operational
Activation November 1967
Ownership Public
Usage Public
Chart CHARLOTTE
ATC on-site No
Beacon schedule sunset-sunrise
Beacon color clear green

KGWW Airport Contacts

Owner WAYNE COUNTY
Owner address 240 AVIATION ROAD, PIKEVILLE, NC 27863
Owner phone 919-734-7630
Manager FRANCIS H. BOWYER
Manager address 3842 RIVER ROAD, WADE, NC 28395
Manager phone 910-485-6750

KGWW Airport (Wayne Executive Jetport) Radio Frequencies

KGWW (Airport) Radio Frequencies

UNICOM 122.7
Common traffic advisory frequency (CTAF) 122.7